createdAt,value
2018-09-15T00:01:26.520Z,13.50
2018-09-15T00:03:56.182Z,14.33
2018-09-15T00:06:25.865Z,14.30
2018-09-15T00:08:55.463Z,15.20
2018-09-15T00:11:25.170Z,15.80
2018-09-15T00:13:54.794Z,14.33
2018-09-15T00:16:24.620Z,14.87
2018-09-15T00:18:54.301Z,15.07
2018-09-15T00:21:23.947Z,15.80
2018-09-15T00:23:53.575Z,14.40
2018-09-15T00:26:23.265Z,16.17
2018-09-15T00:28:52.722Z,15.53
2018-09-15T00:31:22.206Z,14.13
2018-09-15T00:33:51.858Z,15.60
2018-09-15T00:36:21.556Z,14.77
2018-09-15T00:38:51.284Z,14.53
2018-09-15T00:41:20.982Z,15.30
2018-09-15T00:43:50.713Z,16.33
2018-09-15T00:46:20.517Z,15.50
2018-09-15T00:48:50.140Z,14.40
2018-09-15T00:51:19.860Z,15.50
2018-09-15T00:53:49.704Z,15.73
2018-09-15T00:56:19.833Z,16.27
2018-09-15T00:58:49.731Z,14.77
2018-09-15T01:01:19.284Z,16.40
2018-09-15T01:03:48.980Z,16.80
2018-09-15T01:06:18.564Z,16.20
2018-09-15T01:08:48.669Z,15.60
2018-09-15T01:11:18.424Z,17.67
2018-09-15T01:13:48.017Z,18.23
2018-09-15T01:16:17.451Z,19.27
2018-09-15T01:18:46.983Z,19.83
2018-09-15T01:21:16.731Z,19.00
2018-09-15T01:23:47.567Z,19.43
2018-09-15T01:26:17.859Z,18.90
2018-09-15T01:28:50.677Z,18.10
2018-09-15T01:31:22.231Z,19.17
2018-09-15T01:33:52.727Z,18.37
2018-09-15T01:36:23.078Z,18.70
2018-09-15T01:38:52.765Z,18.60
2018-09-15T01:41:22.467Z,20.27
2018-09-15T01:43:52.126Z,17.63
2018-09-15T01:46:21.766Z,18.43
2018-09-15T01:48:51.423Z,17.33
2018-09-15T01:51:21.181Z,16.90
2018-09-15T01:53:50.743Z,17.70
2018-09-15T01:56:20.416Z,18.67
2018-09-15T01:58:49.981Z,16.60
2018-09-15T02:01:19.564Z,17.60
2018-09-15T02:03:49.128Z,17.43
2018-09-15T02:06:19.181Z,17.77
2018-09-15T02:08:48.896Z,18.17
2018-09-15T02:11:18.530Z,18.77
2018-09-15T02:13:48.151Z,18.87
2018-09-15T02:16:17.603Z,17.13
2018-09-15T02:18:47.396Z,20.00
2018-09-15T02:21:17.001Z,18.53
2018-09-15T02:23:46.620Z,19.77
2018-09-15T02:26:16.263Z,20.37
2018-09-15T02:28:45.972Z,20.27
2018-09-15T02:31:15.713Z,20.17
2018-09-15T02:33:45.358Z,18.90
2018-09-15T02:36:15.482Z,18.63
2018-09-15T02:38:45.335Z,18.73
2018-09-15T02:41:15.810Z,19.23
2018-09-15T02:43:45.777Z,20.57
2018-09-15T02:46:15.796Z,17.67
2018-09-15T02:48:45.358Z,17.77
2018-09-15T02:51:14.858Z,17.80
2018-09-15T02:53:44.384Z,16.60
2018-09-15T02:56:13.835Z,17.07
2018-09-15T02:58:43.266Z,16.90
2018-09-15T03:01:12.919Z,17.13
2018-09-15T03:03:42.613Z,17.60
2018-09-15T03:06:12.581Z,16.50
2018-09-15T03:08:42.285Z,17.80
2018-09-15T03:11:11.982Z,14.87
2018-09-15T03:13:41.770Z,15.47
2018-09-15T03:16:11.320Z,15.93
2018-09-15T03:18:41.057Z,14.73
2018-09-15T03:21:10.746Z,13.87
2018-09-15T03:23:40.522Z,15.00
2018-09-15T03:26:10.337Z,14.20
2018-09-15T03:28:40.042Z,12.77
2018-09-15T03:31:09.783Z,15.63
2018-09-15T03:33:39.539Z,13.70
2018-09-15T03:36:09.132Z,15.00
2018-09-15T03:38:38.995Z,15.07
2018-09-15T03:41:08.691Z,15.10
2018-09-15T03:43:38.394Z,15.90
2018-09-15T03:46:08.036Z,15.20
2018-09-15T03:48:37.734Z,15.23
2018-09-15T03:51:07.992Z,15.30
2018-09-15T03:53:37.658Z,15.33
2018-09-15T03:56:07.409Z,16.63
2018-09-15T03:58:37.071Z,15.17
2018-09-15T04:01:06.659Z,14.37
2018-09-15T04:03:36.112Z,15.23
2018-09-15T04:06:05.952Z,15.43
2018-09-15T04:08:35.539Z,14.90
2018-09-15T04:11:05.126Z,15.27
2018-09-15T04:13:34.932Z,17.40
2018-09-15T04:16:04.546Z,16.20
2018-09-15T04:18:34.182Z,16.40
2018-09-15T04:21:03.936Z,15.10
2018-09-15T04:23:33.457Z,16.30
2018-09-15T04:26:03.033Z,15.40
2018-09-15T04:28:32.726Z,15.43
2018-09-15T04:31:02.302Z,15.80
2018-09-15T04:33:32.037Z,14.83
2018-09-15T04:36:01.791Z,16.63
2018-09-15T04:38:31.290Z,17.30
2018-09-15T04:41:00.948Z,16.50
2018-09-15T04:43:30.641Z,15.97
2018-09-15T04:46:00.220Z,16.77
2018-09-15T04:48:29.934Z,16.23
2018-09-15T04:50:59.469Z,16.77
2018-09-15T04:53:29.106Z,17.67
2018-09-15T04:55:58.745Z,17.37
2018-09-15T04:58:28.304Z,16.00
2018-09-15T05:00:58.013Z,15.70
2018-09-15T05:03:27.630Z,15.57
2018-09-15T05:05:57.079Z,15.77
2018-09-15T05:08:26.853Z,15.87
2018-09-15T05:10:56.605Z,15.80
2018-09-15T05:13:26.324Z,15.50
2018-09-15T05:15:56.004Z,14.47
2018-09-15T05:18:25.661Z,15.13
2018-09-15T05:20:55.341Z,14.27
2018-09-15T05:23:25.067Z,14.43
2018-09-15T05:25:54.595Z,13.10
2018-09-15T05:28:24.229Z,13.67
2018-09-15T05:30:53.900Z,14.27
2018-09-15T05:33:23.831Z,13.63
2018-09-15T05:35:53.373Z,14.83
2018-09-15T05:38:23.339Z,14.67
2018-09-15T05:40:53.039Z,14.60
2018-09-15T05:43:22.642Z,14.40
2018-09-15T05:45:52.269Z,14.87
2018-09-15T05:48:21.739Z,15.10
2018-09-15T05:50:51.246Z,15.00
2018-09-15T05:53:20.897Z,15.53
2018-09-15T05:55:50.517Z,13.77
2018-09-15T05:58:20.153Z,13.27
2018-09-15T06:00:51.345Z,13.87
2018-09-15T06:03:21.212Z,13.50
2018-09-15T06:05:51.008Z,15.27
2018-09-15T06:08:20.724Z,14.20
2018-09-15T06:10:50.453Z,13.60
2018-09-15T06:13:19.842Z,14.00
2018-09-15T06:15:49.687Z,12.83
2018-09-15T06:18:19.389Z,12.37
2018-09-15T06:20:49.015Z,13.60
2018-09-15T06:23:18.665Z,13.73
2018-09-15T06:25:48.456Z,12.60
2018-09-15T06:28:18.132Z,12.20
2018-09-15T06:30:47.726Z,12.00
2018-09-15T06:33:17.119Z,13.07
2018-09-15T06:35:46.786Z,12.50
2018-09-15T06:38:16.302Z,13.00
2018-09-15T06:40:45.984Z,13.60
2018-09-15T06:43:15.539Z,11.93
2018-09-15T06:45:45.246Z,13.10
2018-09-15T06:48:14.658Z,12.10
2018-09-15T06:50:44.120Z,11.13
2018-09-15T06:53:13.754Z,11.17
2018-09-15T06:55:43.463Z,11.60
2018-09-15T06:58:13.094Z,13.10
2018-09-15T07:00:44.742Z,11.50
2018-09-15T07:03:14.239Z,11.33
2018-09-15T07:05:43.815Z,10.70
2018-09-15T07:08:13.334Z,11.10
2018-09-15T07:10:42.766Z,12.17
2018-09-15T07:13:12.257Z,11.53
2018-09-15T07:15:41.704Z,11.47
2018-09-15T07:18:11.270Z,12.33
2018-09-15T07:20:41.033Z,11.80
2018-09-15T07:23:10.735Z,12.67
2018-09-15T07:25:40.536Z,12.10
2018-09-15T07:28:10.286Z,11.70
2018-09-15T07:30:39.989Z,11.50
2018-09-15T07:33:09.719Z,11.80
2018-09-15T07:35:39.356Z,10.60
2018-09-15T07:38:09.114Z,11.70
2018-09-15T07:40:38.668Z,11.50
2018-09-15T07:43:08.207Z,11.40
2018-09-15T07:45:37.920Z,11.23
2018-09-15T07:48:07.580Z,11.53
2018-09-15T07:50:37.095Z,11.77
2018-09-15T07:53:06.593Z,12.03
2018-09-15T07:55:36.087Z,11.33
2018-09-15T07:58:05.659Z,11.20
2018-09-15T08:00:35.423Z,11.30
2018-09-15T08:03:05.081Z,11.33
2018-09-15T08:05:34.819Z,11.00
2018-09-15T08:08:04.516Z,10.97
2018-09-15T08:10:34.090Z,11.83
2018-09-15T08:13:03.481Z,11.80
2018-09-15T08:15:32.994Z,11.53
2018-09-15T08:18:02.456Z,10.90
2018-09-15T08:20:32.054Z,11.03
2018-09-15T08:23:01.741Z,11.33
2018-09-15T08:25:31.413Z,10.40
2018-09-15T08:28:01.155Z,11.43
2018-09-15T08:30:30.549Z,10.70
2018-09-15T08:33:00.068Z,10.40
2018-09-15T08:35:29.644Z,10.90
2018-09-15T08:37:59.454Z,10.27
2018-09-15T08:40:29.096Z,10.33
2018-09-15T08:42:58.553Z,9.70
2018-09-15T08:45:28.570Z,9.90
2018-09-15T08:47:58.153Z,9.40
2018-09-15T08:50:27.743Z,10.13
2018-09-15T08:52:57.363Z,9.47
2018-09-15T08:55:26.950Z,9.80
2018-09-15T08:57:57.254Z,9.80
2018-09-15T09:00:26.776Z,8.97
2018-09-15T09:02:56.507Z,9.37
2018-09-15T09:05:26.252Z,8.90
2018-09-15T09:07:56.006Z,8.87
2018-09-15T09:10:25.738Z,9.70
2018-09-15T09:12:55.575Z,8.83
2018-09-15T09:15:25.265Z,9.30
2018-09-15T09:17:55.126Z,9.57
2018-09-15T09:20:24.817Z,8.27
2018-09-15T09:22:54.481Z,7.80
2018-09-15T09:25:24.148Z,8.70
2018-09-15T09:27:53.633Z,8.13
2018-09-15T09:30:23.296Z,8.20
2018-09-15T09:32:52.972Z,7.00
2018-09-15T09:35:22.585Z,8.67
2018-09-15T09:37:52.416Z,7.57
2018-09-15T09:40:22.046Z,7.73
2018-09-15T09:42:52.015Z,9.23
2018-09-15T09:45:21.509Z,9.00
2018-09-15T09:47:51.166Z,9.40
2018-09-15T09:50:20.945Z,9.70
2018-09-15T09:52:50.707Z,10.97
2018-09-15T09:55:20.594Z,9.40
2018-09-15T09:57:50.279Z,10.50
2018-09-15T10:00:25.275Z,9.33
2018-09-15T10:02:55.083Z,8.53
2018-09-15T10:05:24.892Z,7.70
2018-09-15T10:07:54.610Z,8.13
2018-09-15T10:10:24.264Z,7.90
2018-09-15T10:12:53.919Z,8.50
2018-09-15T10:15:23.691Z,8.40
2018-09-15T10:17:53.471Z,8.80
2018-09-15T10:20:22.882Z,9.07
2018-09-15T10:22:52.797Z,9.03
2018-09-15T10:25:22.529Z,8.07
2018-09-15T10:27:52.262Z,7.77
2018-09-15T10:30:22.104Z,8.97
2018-09-15T10:32:51.957Z,8.80
2018-09-15T10:35:21.778Z,8.87
2018-09-15T10:37:51.482Z,8.40
2018-09-15T10:40:21.483Z,8.13
2018-09-15T10:42:51.259Z,7.20
2018-09-15T10:45:21.326Z,7.10
2018-09-15T10:47:51.105Z,6.43
2018-09-15T10:50:20.919Z,6.60
2018-09-15T10:52:50.759Z,6.93
2018-09-15T10:55:20.490Z,6.60
2018-09-15T10:57:50.202Z,6.57
2018-09-15T11:00:20.051Z,6.00
2018-09-15T11:02:49.596Z,6.03
2018-09-15T11:05:19.282Z,5.77
2018-09-15T11:07:48.926Z,5.80
2018-09-15T11:10:18.580Z,7.40
2018-09-15T11:12:48.149Z,7.03
2018-09-15T11:15:18.027Z,5.93
2018-09-15T11:17:47.642Z,6.83
2018-09-15T11:20:17.315Z,6.47
2018-09-15T11:22:47.033Z,6.13
2018-09-15T11:25:16.547Z,6.97
2018-09-15T11:27:46.111Z,6.77
2018-09-15T11:30:15.734Z,7.20
2018-09-15T11:32:45.194Z,6.93
2018-09-15T11:35:14.700Z,7.97
2018-09-15T11:37:44.374Z,6.90
2018-09-15T11:40:13.903Z,7.57
2018-09-15T11:42:43.463Z,7.60
2018-09-15T11:45:13.048Z,6.83
2018-09-15T11:47:42.700Z,7.23
2018-09-15T11:50:12.277Z,6.13
2018-09-15T11:52:41.894Z,6.47
2018-09-15T11:55:11.702Z,6.60
2018-09-15T11:57:41.241Z,6.83
2018-09-15T12:00:10.880Z,6.27
2018-09-15T12:02:40.569Z,6.50
2018-09-15T12:05:10.378Z,6.10
2018-09-15T12:07:39.943Z,6.20
2018-09-15T12:10:09.576Z,5.03
2018-09-15T12:12:39.250Z,6.00
2018-09-15T12:15:09.006Z,6.43
2018-09-15T12:17:38.711Z,6.53
2018-09-15T12:20:08.412Z,6.40
2018-09-15T12:22:38.008Z,5.90
2018-09-15T12:25:07.580Z,5.70
2018-09-15T12:27:37.331Z,6.60
2018-09-15T12:30:07.264Z,6.20
2018-09-15T12:32:37.044Z,5.93
2018-09-15T12:35:06.883Z,5.70
2018-09-15T12:37:36.692Z,6.60
2018-09-15T12:40:06.558Z,5.00
2018-09-15T12:42:36.488Z,5.40
2018-09-15T12:45:06.144Z,4.83
2018-09-15T12:47:35.841Z,5.53
2018-09-15T12:50:05.503Z,5.13
2018-09-15T12:52:35.276Z,5.13
2018-09-15T12:55:04.856Z,5.23
2018-09-15T12:57:34.673Z,5.27
2018-09-15T13:00:04.244Z,5.40
2018-09-15T13:02:33.723Z,5.27
2018-09-15T13:05:03.452Z,4.37
2018-09-15T13:07:32.949Z,5.00
2018-09-15T13:10:02.655Z,4.30
2018-09-15T13:12:32.959Z,5.33
2018-09-15T13:15:02.549Z,4.67
2018-09-15T13:17:32.108Z,4.67
2018-09-15T13:20:02.415Z,5.10
2018-09-15T13:22:32.101Z,4.43
2018-09-15T13:25:01.810Z,5.03
2018-09-15T13:27:31.416Z,4.73
2018-09-15T13:30:01.146Z,5.17
2018-09-15T13:32:30.768Z,4.50
2018-09-15T13:35:00.461Z,4.30
2018-09-15T13:37:30.180Z,4.83
2018-09-15T13:39:59.748Z,4.60
2018-09-15T13:42:29.528Z,4.40
2018-09-15T13:44:59.257Z,4.80
2018-09-15T13:47:28.931Z,5.20
2018-09-15T13:49:58.530Z,4.07
2018-09-15T13:52:29.054Z,4.07
2018-09-15T13:54:58.774Z,3.33
2018-09-15T13:57:28.335Z,3.63
2018-09-15T13:59:57.951Z,3.40
2018-09-15T14:02:27.523Z,3.50
2018-09-15T14:04:57.223Z,3.30
2018-09-15T14:07:27.913Z,4.80
2018-09-15T14:09:57.486Z,4.90
2018-09-15T14:12:27.239Z,4.30
2018-09-15T14:14:56.900Z,4.23
2018-09-15T14:17:26.642Z,4.27
2018-09-15T14:19:58.387Z,4.67
2018-09-15T14:22:28.014Z,4.93
2018-09-15T14:24:58.419Z,4.73
2018-09-15T14:27:28.131Z,4.50
2018-09-15T14:29:57.630Z,5.63
2018-09-15T14:32:28.309Z,4.77
2018-09-15T14:34:58.098Z,4.30
2018-09-15T14:37:27.689Z,3.80
2018-09-15T14:39:57.420Z,4.47
2018-09-15T14:42:27.130Z,4.67
2018-09-15T14:44:56.873Z,4.60
2018-09-15T14:47:26.319Z,4.90
2018-09-15T14:49:56.071Z,4.23
2018-09-15T14:52:25.787Z,4.63
2018-09-15T14:54:55.504Z,4.70
2018-09-15T14:57:25.029Z,4.37
2018-09-15T14:59:54.625Z,4.20
2018-09-15T15:02:24.271Z,4.10
2018-09-15T15:04:53.983Z,3.83
2018-09-15T15:07:23.519Z,3.27
2018-09-15T15:09:53.095Z,3.00
2018-09-15T15:12:22.725Z,3.57
2018-09-15T15:14:52.299Z,3.23
2018-09-15T15:17:21.695Z,3.70
2018-09-15T15:19:51.424Z,4.13
2018-09-15T15:22:21.050Z,4.27
2018-09-15T15:24:50.730Z,4.90
2018-09-15T15:27:20.411Z,4.20
2018-09-15T15:29:50.082Z,4.17
2018-09-15T15:32:19.760Z,3.97
2018-09-15T15:34:49.346Z,4.07
2018-09-15T15:37:18.834Z,4.00
2018-09-15T15:39:48.565Z,3.50
2018-09-15T15:42:18.201Z,4.30
2018-09-15T15:44:47.861Z,3.50
2018-09-15T15:47:17.412Z,2.77
2018-09-15T15:49:47.576Z,3.30
2018-09-15T15:52:17.250Z,3.20
2018-09-15T15:54:47.095Z,3.43
2018-09-15T15:57:16.674Z,3.10
2018-09-15T15:59:46.271Z,3.20
2018-09-15T16:02:15.999Z,3.03
2018-09-15T16:04:45.535Z,3.63
2018-09-15T16:07:15.231Z,3.90
2018-09-15T16:09:44.829Z,3.47
2018-09-15T16:12:14.477Z,3.50
2018-09-15T16:14:44.056Z,3.03
2018-09-15T16:17:13.922Z,3.33
2018-09-15T16:19:43.464Z,3.70
2018-09-15T16:22:13.070Z,3.83
2018-09-15T16:24:42.683Z,3.63
2018-09-15T16:27:12.258Z,3.30
2018-09-15T16:29:41.892Z,3.50
2018-09-15T16:32:11.650Z,3.70
2018-09-15T16:34:41.353Z,3.00
2018-09-15T16:37:11.178Z,3.30
2018-09-15T16:39:40.749Z,2.70
2018-09-15T16:42:10.348Z,3.17
2018-09-15T16:44:40.224Z,3.07
2018-09-15T16:47:09.779Z,2.90
2018-09-15T16:49:39.491Z,3.30
2018-09-15T16:52:09.227Z,3.30
2018-09-15T16:54:38.834Z,3.03
2018-09-15T16:57:08.521Z,2.97
2018-09-15T16:59:38.239Z,3.03
2018-09-15T17:02:07.869Z,3.20
2018-09-15T17:04:37.447Z,3.23
2018-09-15T17:07:07.575Z,2.73
2018-09-15T17:09:37.262Z,3.50
2018-09-15T17:12:06.932Z,3.20
2018-09-15T17:14:36.609Z,3.63
2018-09-15T17:17:06.485Z,3.30
2018-09-15T17:19:36.956Z,3.30
2018-09-15T17:22:06.570Z,3.23
2018-09-15T17:24:36.219Z,2.90
2018-09-15T17:27:08.247Z,3.30
2018-09-15T17:29:37.807Z,3.30
2018-09-15T17:32:07.664Z,3.13
2018-09-15T17:34:37.430Z,3.50
2018-09-15T17:37:07.055Z,3.50
2018-09-15T17:39:36.704Z,3.23
2018-09-15T17:42:06.732Z,3.30
2018-09-15T17:44:36.310Z,3.40
2018-09-15T17:47:06.143Z,3.50
2018-09-15T17:49:35.812Z,4.40
2018-09-15T17:52:05.264Z,3.13
2018-09-15T17:54:34.853Z,3.87
2018-09-15T17:57:04.412Z,4.10
2018-09-15T17:59:34.061Z,3.40
2018-09-15T18:02:03.805Z,3.87
2018-09-15T18:04:33.378Z,3.40
2018-09-15T18:07:03.044Z,3.80
2018-09-15T18:09:32.837Z,3.63
2018-09-15T18:12:02.293Z,3.80
2018-09-15T18:14:31.909Z,3.50
2018-09-15T18:17:01.588Z,3.70
2018-09-15T18:19:30.979Z,4.00
2018-09-15T18:22:00.564Z,4.77
2018-09-15T18:24:30.312Z,4.83
2018-09-15T18:27:00.470Z,5.10
2018-09-15T18:29:30.128Z,5.73
2018-09-15T18:31:59.840Z,5.90
2018-09-15T18:34:29.318Z,6.13
2018-09-15T18:36:59.155Z,8.50
2018-09-15T18:39:28.375Z,10.20
2018-09-15T18:41:58.104Z,12.23
2018-09-15T18:44:27.723Z,12.03
2018-09-15T18:46:57.529Z,10.17
2018-09-15T18:49:27.298Z,7.80
2018-09-15T18:51:56.900Z,6.57
2018-09-15T18:54:26.678Z,6.03
2018-09-15T18:56:56.165Z,6.00
2018-09-15T18:59:25.767Z,5.60
2018-09-15T19:01:55.284Z,5.17
2018-09-15T19:04:25.026Z,5.23
2018-09-15T19:06:54.587Z,4.73
2018-09-15T19:09:24.334Z,4.80
2018-09-15T19:11:53.904Z,4.80
2018-09-15T19:14:23.560Z,5.50
2018-09-15T19:16:53.216Z,5.00
2018-09-15T19:19:22.851Z,5.40
2018-09-15T19:21:52.279Z,5.60
2018-09-15T19:24:21.956Z,5.50
2018-09-15T19:26:51.812Z,5.70
2018-09-15T19:29:21.450Z,5.90
2018-09-15T19:31:51.254Z,5.90
2018-09-15T19:34:20.778Z,5.57
2018-09-15T19:36:50.411Z,5.73
2018-09-15T19:39:20.014Z,5.60
2018-09-15T19:41:49.490Z,5.10
2018-09-15T19:44:19.286Z,4.47
2018-09-15T19:46:48.909Z,4.70
2018-09-15T19:49:18.615Z,4.40
2018-09-15T19:51:48.318Z,4.70
2018-09-15T19:54:17.815Z,4.40
2018-09-15T19:56:47.441Z,3.93
2018-09-15T19:59:17.185Z,4.53
2018-09-15T20:01:46.695Z,4.70
2018-09-15T20:04:16.310Z,4.30
2018-09-15T20:06:45.975Z,4.80
2018-09-15T20:09:15.674Z,4.67
2018-09-15T20:11:45.385Z,5.00
2018-09-15T20:14:15.064Z,4.90
2018-09-15T20:16:43.374Z,5.70
2018-09-15T20:19:11.612Z,5.00
2018-09-15T20:21:39.756Z,4.27
2018-09-15T20:24:09.514Z,4.77
2018-09-15T20:26:39.045Z,4.57
2018-09-15T20:29:08.538Z,5.10
2018-09-15T20:31:38.152Z,5.27
2018-09-15T20:34:07.965Z,5.60
2018-09-15T20:36:37.610Z,5.47
2018-09-15T20:39:09.926Z,5.33
2018-09-15T20:41:39.400Z,4.87
2018-09-15T20:44:09.322Z,4.90
2018-09-15T20:46:39.032Z,5.20
2018-09-15T20:49:08.766Z,5.60
2018-09-15T20:51:38.400Z,5.13
2018-09-15T20:54:08.103Z,5.13
2018-09-15T20:56:37.818Z,5.63
2018-09-15T20:59:07.356Z,5.50
2018-09-15T21:01:36.840Z,5.40
2018-09-15T21:04:06.641Z,4.60
2018-09-15T21:06:36.698Z,4.97
2018-09-15T21:09:08.957Z,4.60
2018-09-15T21:11:38.799Z,5.43
2018-09-15T21:14:08.475Z,5.27
2018-09-15T21:16:38.281Z,4.50
2018-09-15T21:19:07.775Z,4.90
2018-09-15T21:21:37.438Z,4.63
2018-09-15T21:24:07.301Z,5.00
2018-09-15T21:26:37.056Z,4.30
2018-09-15T21:29:06.823Z,4.87
2018-09-15T21:31:36.302Z,4.40
2018-09-15T21:34:06.256Z,5.27
2018-09-15T21:36:35.994Z,4.70
2018-09-15T21:39:09.766Z,4.90
2018-09-15T21:41:39.825Z,5.23
2018-09-15T21:44:09.799Z,5.57
2018-09-15T21:46:39.768Z,5.90
2018-09-15T21:49:09.480Z,5.60
2018-09-15T21:51:39.251Z,5.47
2018-09-15T21:54:08.896Z,4.83
2018-09-15T21:56:38.435Z,5.00
2018-09-15T21:59:08.021Z,5.23
2018-09-15T22:01:37.668Z,5.27
2018-09-15T22:04:12.331Z,5.80
2018-09-15T22:06:41.952Z,5.40
2018-09-15T22:09:12.748Z,5.40
2018-09-15T22:11:43.158Z,5.17
2018-09-15T22:14:12.888Z,5.33
2018-09-15T22:16:43.174Z,5.63
2018-09-15T22:19:12.987Z,5.33
2018-09-15T22:21:42.495Z,5.60
2018-09-15T22:24:12.098Z,5.30
2018-09-15T22:26:41.833Z,5.90
2018-09-15T22:29:11.505Z,5.67
2018-09-15T22:31:41.336Z,6.00
2018-09-15T22:34:10.892Z,5.20
2018-09-15T22:36:40.647Z,6.23
2018-09-15T22:39:10.314Z,5.73
2018-09-15T22:41:39.981Z,4.93
2018-09-15T22:44:09.507Z,6.23
2018-09-15T22:46:39.144Z,5.70
2018-09-15T22:49:09.129Z,5.63
2018-09-15T22:51:38.760Z,5.20
2018-09-15T22:54:08.453Z,5.23
2018-09-15T22:56:38.191Z,5.37
2018-09-15T22:59:07.962Z,5.47
2018-09-15T23:01:37.471Z,5.57
2018-09-15T23:04:10.042Z,5.87
2018-09-15T23:06:39.813Z,5.23
2018-09-15T23:09:10.429Z,5.60
2018-09-15T23:11:40.163Z,5.03
2018-09-15T23:14:09.715Z,5.80
2018-09-15T23:16:39.374Z,5.10
2018-09-15T23:19:09.022Z,5.30
2018-09-15T23:21:38.684Z,5.50
2018-09-15T23:24:08.241Z,5.40
2018-09-15T23:26:37.986Z,5.70
2018-09-15T23:29:07.842Z,5.83
2018-09-15T23:31:37.607Z,5.80
2018-09-15T23:34:07.383Z,5.67
2018-09-15T23:36:37.062Z,5.77
2018-09-15T23:39:08.671Z,5.17
2018-09-15T23:41:38.552Z,5.37
2018-09-15T23:44:08.134Z,5.57
2018-09-15T23:46:37.696Z,6.47
2018-09-15T23:49:07.438Z,6.33
2018-09-15T23:51:37.087Z,5.77
2018-09-15T23:54:06.742Z,6.30
2018-09-15T23:56:36.250Z,6.87
2018-09-15T23:59:06.495Z,6.67
